createdAt,value
2022-12-08T00:03:55.762Z,3.90
2022-12-08T00:09:22.171Z,3.80
2022-12-08T00:14:27.561Z,2.80
2022-12-08T00:19:34.007Z,4.40
2022-12-08T00:24:44.196Z,3.80
2022-12-08T00:29:49.654Z,5.00
2022-12-08T00:34:53.258Z,3.40
2022-12-08T00:39:58.501Z,3.80
2022-12-08T00:45:02.216Z,3.80
2022-12-08T00:50:06.880Z,3.80
2022-12-08T00:55:13.118Z,3.80
2022-12-08T01:00:18.497Z,3.80
2022-12-08T01:05:22.022Z,3.80
2022-12-08T01:10:26.673Z,3.80
2022-12-08T01:15:30.224Z,3.90
2022-12-08T01:20:36.598Z,3.90
2022-12-08T01:25:41.229Z,3.90
2022-12-08T01:30:47.374Z,3.90
2022-12-08T01:35:50.895Z,3.90
2022-12-08T01:40:55.874Z,3.90
2022-12-08T01:45:59.909Z,3.90
2022-12-08T01:51:04.434Z,3.80
2022-12-08T01:56:10.496Z,3.80
2022-12-08T02:01:14.305Z,3.90
2022-12-08T02:06:17.782Z,3.80
2022-12-08T02:11:22.614Z,3.80
2022-12-08T02:16:34.877Z,3.70
2022-12-08T02:21:45.689Z,3.70
2022-12-08T02:27:18.150Z,3.70
2022-12-08T02:32:38.419Z,3.70
2022-12-08T02:37:48.595Z,3.70
2022-12-08T02:42:55.274Z,3.70
2022-12-08T02:47:59.112Z,3.70
2022-12-08T02:58:29.792Z,3.70
2022-12-08T03:03:37.251Z,3.70
2022-12-08T03:08:43.659Z,3.60
2022-12-08T03:13:47.889Z,3.70
2022-12-08T03:18:54.501Z,3.60
2022-12-08T03:23:59.257Z,3.70
2022-12-08T03:29:02.417Z,3.80
2022-12-08T03:34:07.405Z,3.70
2022-12-08T03:39:12.655Z,3.70
2022-12-08T03:44:16.585Z,3.60
2022-12-08T03:49:19.952Z,3.60
2022-12-08T03:54:43.496Z,3.70
2022-12-08T03:59:47.498Z,3.70
2022-12-08T04:04:51.266Z,3.70
2022-12-08T04:09:55.983Z,3.70
2022-12-08T04:15:00.196Z,3.70
2022-12-08T04:20:03.931Z,3.60
2022-12-08T04:25:09.849Z,3.60
2022-12-08T04:30:13.402Z,3.50
2022-12-08T04:35:16.945Z,3.40
2022-12-08T04:40:23.901Z,3.20
2022-12-08T04:45:27.257Z,3.10
2022-12-08T04:50:30.781Z,3.20
2022-12-08T04:55:35.605Z,3.20
2022-12-08T05:00:39.023Z,3.30
2022-12-08T05:05:43.164Z,3.30
2022-12-08T05:10:47.912Z,3.40
2022-12-08T05:15:51.175Z,3.40
2022-12-08T05:20:54.668Z,3.40
2022-12-08T05:25:59.606Z,3.40
2022-12-08T05:31:03.048Z,3.40
2022-12-08T05:36:07.502Z,3.40
2022-12-08T05:41:14.336Z,3.40
2022-12-08T05:46:20.337Z,3.40
2022-12-08T05:51:25.065Z,3.40
2022-12-08T05:56:29.902Z,3.40
2022-12-08T06:01:35.288Z,3.30
2022-12-08T06:06:39.099Z,3.40
2022-12-08T06:11:46.623Z,3.40
2022-12-08T06:16:51.489Z,3.40
2022-12-08T06:21:55.389Z,3.40
2022-12-08T06:27:01.227Z,3.30
2022-12-08T06:32:04.826Z,3.30
2022-12-08T06:37:08.350Z,3.30
2022-12-08T06:42:30.440Z,3.40
2022-12-08T06:47:34.046Z,3.30
2022-12-08T06:52:45.695Z,3.30
2022-12-08T06:57:55.522Z,3.40
2022-12-08T07:03:00.391Z,3.40
2022-12-08T07:08:03.673Z,3.40
2022-12-08T07:13:08.227Z,3.30
2022-12-08T07:18:12.417Z,3.40
2022-12-08T07:23:17.087Z,3.40
2022-12-08T07:28:22.021Z,3.40
2022-12-08T07:33:25.611Z,3.40
2022-12-08T07:38:29.142Z,3.40
2022-12-08T07:43:33.880Z,3.40
2022-12-08T07:48:37.428Z,3.40
2022-12-08T07:53:42.726Z,3.40
2022-12-08T07:58:47.624Z,3.40
2022-12-08T08:03:50.764Z,3.50
2022-12-08T08:08:53.947Z,3.60
2022-12-08T08:13:58.720Z,3.50
2022-12-08T08:19:03.016Z,3.70
2022-12-08T08:24:06.931Z,3.50
2022-12-08T08:29:11.521Z,3.70
2022-12-08T08:34:15.453Z,3.70
2022-12-08T08:39:19.243Z,3.80
2022-12-08T08:44:24.414Z,3.80
2022-12-08T08:49:28.887Z,3.90
2022-12-08T08:54:32.080Z,4.30
2022-12-08T08:59:36.570Z,3.70
2022-12-08T09:04:42.358Z,3.80
2022-12-08T09:09:45.765Z,3.80
2022-12-08T09:14:51.102Z,3.80
2022-12-08T09:19:56.044Z,3.90
2022-12-08T09:24:59.454Z,3.90
2022-12-08T09:30:04.718Z,4.10
2022-12-08T09:35:10.278Z,4.10
2022-12-08T09:40:16.445Z,4.10
2022-12-08T09:45:32.864Z,4.30
2022-12-08T09:50:38.067Z,4.20
2022-12-08T09:55:43.581Z,4.10
2022-12-08T10:00:48.510Z,4.00
2022-12-08T10:05:57.050Z,4.20
2022-12-08T10:11:05.578Z,4.10
2022-12-08T10:16:24.253Z,4.40
2022-12-08T10:21:30.531Z,4.40
2022-12-08T10:26:37.238Z,4.60
2022-12-08T10:31:42.115Z,4.20
2022-12-08T10:36:54.006Z,4.30
2022-12-08T10:42:03.683Z,4.10
2022-12-08T10:47:16.112Z,4.30
2022-12-08T10:52:24.004Z,4.30
2022-12-08T10:57:27.456Z,4.00
2022-12-08T11:02:32.366Z,4.00
2022-12-08T11:07:36.256Z,4.00
2022-12-08T11:12:39.885Z,4.10
2022-12-08T11:17:46.104Z,4.10
2022-12-08T11:22:55.260Z,4.20
2022-12-08T11:28:00.285Z,4.10
2022-12-08T11:33:16.081Z,4.20
2022-12-08T11:38:22.829Z,4.40
2022-12-08T11:43:29.839Z,4.40
2022-12-08T11:48:37.573Z,4.40
2022-12-08T11:53:44.887Z,4.10
2022-12-08T11:58:50.670Z,4.30
2022-12-08T12:04:02.528Z,4.40
2022-12-08T12:09:10.493Z,4.60
2022-12-08T12:14:22.104Z,4.50
2022-12-08T12:19:27.214Z,4.40
2022-12-08T12:24:36.003Z,4.50
2022-12-08T12:29:40.638Z,4.60
2022-12-08T12:34:50.261Z,4.30
2022-12-08T12:39:56.390Z,4.50
2022-12-08T12:45:25.512Z,4.70
2022-12-08T12:50:48.105Z,4.50
2022-12-08T12:55:56.439Z,4.50
2022-12-08T13:01:36.995Z,4.60
2022-12-08T13:06:43.230Z,4.50
2022-12-08T13:11:49.922Z,4.60
2022-12-08T13:16:54.272Z,4.50
2022-12-08T13:21:59.866Z,4.50
2022-12-08T13:27:35.649Z,4.50
2022-12-08T13:33:23.791Z,4.60
2022-12-08T13:38:22.679Z,4.60
2022-12-08T13:43:41.319Z,4.40
2022-12-08T13:59:47.265Z,4.30
2022-12-08T14:10:19.591Z,4.20
2022-12-08T14:15:22.908Z,4.20
2022-12-08T14:20:28.247Z,4.20
2022-12-08T14:25:33.776Z,4.00
2022-12-08T14:30:38.781Z,4.00
2022-12-08T14:35:42.834Z,4.00
2022-12-08T14:40:48.980Z,4.00
2022-12-08T14:45:54.436Z,3.80
2022-12-08T14:51:03.073Z,4.10
2022-12-08T14:56:12.841Z,4.10
2022-12-08T15:01:17.820Z,3.70
2022-12-08T15:06:21.949Z,3.70
2022-12-08T15:11:33.370Z,3.80
2022-12-08T15:16:44.944Z,3.70
2022-12-08T15:21:48.552Z,3.60
2022-12-08T15:26:53.581Z,3.60
2022-12-08T15:31:58.242Z,3.40
2022-12-08T15:37:01.464Z,3.20
2022-12-08T15:42:07.943Z,3.00
2022-12-08T15:47:16.254Z,3.00
2022-12-08T15:52:21.619Z,3.10
2022-12-08T16:03:22.579Z,3.10
2022-12-08T16:08:44.544Z,3.10
2022-12-08T16:14:12.251Z,3.20
2022-12-08T16:19:21.776Z,3.10
2022-12-08T16:24:25.081Z,3.00
2022-12-08T16:29:29.746Z,2.90
2022-12-08T16:34:33.166Z,2.70
2022-12-08T16:39:44.023Z,2.80
2022-12-08T16:44:50.225Z,2.80
2022-12-08T16:55:47.471Z,2.80
2022-12-08T17:00:52.843Z,2.90
2022-12-08T17:05:56.291Z,2.90
2022-12-08T17:11:14.130Z,3.00
2022-12-08T17:16:19.781Z,2.90
2022-12-08T17:21:23.086Z,3.10
2022-12-08T17:26:27.319Z,3.00
2022-12-08T17:31:33.406Z,2.90
2022-12-08T17:36:36.873Z,3.00
2022-12-08T17:41:40.706Z,2.90
2022-12-08T17:46:52.073Z,3.00
2022-12-08T17:51:57.786Z,3.00
2022-12-08T17:57:01.374Z,3.10
2022-12-08T18:02:06.710Z,3.10
2022-12-08T18:07:11.281Z,3.10
2022-12-08T18:12:19.299Z,3.10
2022-12-08T18:17:26.975Z,3.10
2022-12-08T18:22:31.418Z,3.30
2022-12-08T18:27:39.896Z,3.20
2022-12-08T18:32:52.881Z,3.30
2022-12-08T18:38:00.621Z,3.10
2022-12-08T18:43:04.112Z,2.90
2022-12-08T18:48:09.470Z,2.90
2022-12-08T18:53:13.139Z,2.80
2022-12-08T18:58:16.420Z,2.80
2022-12-08T19:03:21.211Z,3.00
2022-12-08T19:08:31.055Z,3.00
2022-12-08T19:13:34.806Z,3.00
2022-12-08T19:18:40.252Z,3.10
2022-12-08T19:23:43.603Z,3.20
2022-12-08T19:28:47.141Z,3.30
2022-12-08T19:33:52.862Z,3.40
2022-12-08T19:39:13.881Z,3.10
2022-12-08T19:44:38.228Z,3.30
2022-12-08T19:49:42.943Z,3.40
2022-12-08T19:54:46.875Z,3.60
2022-12-08T19:59:56.157Z,3.30
2022-12-08T20:05:01.634Z,3.00
2022-12-08T20:10:06.768Z,3.30
2022-12-08T20:15:11.301Z,3.20
2022-12-08T20:20:17.626Z,3.00
2022-12-08T20:25:22.583Z,3.20
2022-12-08T20:30:26.432Z,2.90
2022-12-08T20:35:31.268Z,3.20
2022-12-08T20:40:35.129Z,3.20
2022-12-08T20:45:40.113Z,3.20
2022-12-08T20:50:45.034Z,3.10
2022-12-08T20:55:48.573Z,3.00
2022-12-08T21:00:52.931Z,3.10
2022-12-08T21:05:58.766Z,3.10
2022-12-08T21:11:02.079Z,3.30
2022-12-08T21:16:06.033Z,3.00
2022-12-08T21:21:13.092Z,2.80
2022-12-08T21:26:18.164Z,2.70
2022-12-08T21:31:23.253Z,2.80
2022-12-08T21:36:29.859Z,3.30
2022-12-08T21:41:51.019Z,3.30
2022-12-08T21:46:56.603Z,3.10
2022-12-08T21:52:01.938Z,3.30
2022-12-08T21:57:05.565Z,3.40
2022-12-08T22:02:10.567Z,3.20
2022-12-08T22:07:17.434Z,3.20
2022-12-08T22:12:21.215Z,3.20
2022-12-08T22:17:25.167Z,3.10
2022-12-08T22:22:33.285Z,3.20
2022-12-08T22:27:37.183Z,3.50
2022-12-08T22:32:42.382Z,3.40
2022-12-08T22:37:50.842Z,3.30
2022-12-08T22:42:54.425Z,3.00
2022-12-08T22:47:57.791Z,3.00
2022-12-08T22:53:02.692Z,3.00
2022-12-08T22:58:05.811Z,3.40
2022-12-08T23:03:09.750Z,3.50
2022-12-08T23:08:15.393Z,3.80
2022-12-08T23:13:18.690Z,3.60
2022-12-08T23:18:23.628Z,3.30
2022-12-08T23:23:28.984Z,3.50
2022-12-08T23:28:32.855Z,3.00
2022-12-08T23:33:36.822Z,2.80
2022-12-08T23:38:43.867Z,2.90
2022-12-08T23:43:47.919Z,3.40
2022-12-08T23:48:54.937Z,3.50
2022-12-08T23:53:59.844Z,3.60
2022-12-08T23:59:05.329Z,3.20
